CA-0275 weather

CLOSED Parrsboro Airport
Nova Scotia, Canada

Public forecast

Using degrees Celsius for public forecast. Weather courtesy of forecast.io.

Closest aviation weather report (METAR) to Parrsboro Airport

Closest report is CFB Greenwood, 35.8 nm (66.3 km) SW. Retrieved 2020/07/12 09:22 UTC (25 minutes ago):

CYZX 120922Z 15004KT 3SM -RA BR FEW003 BKN011 OVC040 22/21 A2974 RMK SF2SC3SC3 SLP071

Closest aviation forecast (TAF) to Parrsboro Airport

Closest forecast is CFB Greenwood, 35.8 nm (66.3 km) SW. Retrieved 2020/07/12 06:39 UTC (3 hours ago):

TAF CYZX 120535Z 1206/1306 VRB03KT P6SM FEW009 BKN040 TEMPO 1206/1212 6SM -DZ BR BKN009 OVC040 FM121200 22008KT P6SM BKN040 TEMPO 1212/1214 BKN020 BECMG 1214/1216 22015G25KT FM122100 22018G28KT P6SM FEW040 FM130300 22010G20KT P6SM BKN030 RMK NXT FCST BY 121200Z